createdAt,value
2018-03-08T00:00:02.163Z,82.79
2018-03-08T00:01:02.111Z,83.46
2018-03-08T00:02:02.061Z,83.46
2018-03-08T00:03:02.009Z,83.17
2018-03-08T00:04:01.958Z,83.08
2018-03-08T00:05:01.908Z,83.65
2018-03-08T00:06:01.856Z,83.36
2018-03-08T00:07:01.804Z,83.46
2018-03-08T00:08:01.753Z,83.36
2018-03-08T00:09:01.702Z,83.27
2018-03-08T00:10:01.651Z,83.08
2018-03-08T00:11:01.599Z,83.27
2018-03-08T00:12:01.548Z,83.36
2018-03-08T00:13:01.503Z,83.55
2018-03-08T00:14:01.447Z,83.55
2018-03-08T00:15:01.395Z,83.46
2018-03-08T00:16:01.344Z,83.36
2018-03-08T00:17:01.292Z,83.55
2018-03-08T00:18:01.243Z,83.65
2018-03-08T00:19:01.189Z,83.65
2018-03-08T00:20:01.139Z,83.84
2018-03-08T00:21:01.088Z,83.65
2018-03-08T00:22:01.037Z,83.84
2018-03-08T00:23:00.985Z,83.55
2018-03-08T00:24:00.933Z,83.27
2018-03-08T00:25:00.883Z,83.65
2018-03-08T00:26:00.832Z,83.65
2018-03-08T00:27:00.782Z,83.65
2018-03-08T00:28:00.728Z,84.03
2018-03-08T00:29:00.680Z,83.74
2018-03-08T00:30:00.627Z,83.65
2018-03-08T00:31:00.575Z,83.65
2018-03-08T00:32:00.524Z,83.65
2018-03-08T00:33:00.473Z,83.94
2018-03-08T00:34:00.422Z,83.46
2018-03-08T00:35:00.371Z,83.65
2018-03-08T00:36:00.322Z,83.27
2018-03-08T00:37:00.272Z,83.55
2018-03-08T00:38:00.217Z,83.55
2018-03-08T00:39:00.166Z,83.55
2018-03-08T00:40:00.116Z,83.55
2018-03-08T00:41:00.065Z,83.65
2018-03-08T00:42:00.014Z,83.55
2018-03-08T00:42:59.962Z,83.46
2018-03-08T00:43:59.911Z,83.46
2018-03-08T00:44:59.860Z,83.74
2018-03-08T00:45:59.810Z,83.65
2018-03-08T00:46:59.757Z,83.55
2018-03-08T00:47:59.710Z,83.55
2018-03-08T00:48:59.656Z,83.46
2018-03-08T00:49:59.605Z,83.46
2018-03-08T00:50:59.552Z,83.94
2018-03-08T00:51:59.502Z,83.84
2018-03-08T00:52:59.451Z,83.84
2018-03-08T00:53:59.400Z,83.84
2018-03-08T00:54:59.350Z,83.94
2018-03-08T00:55:59.298Z,83.84
2018-03-08T00:56:59.250Z,83.94
2018-03-08T00:57:59.196Z,83.84
2018-03-08T00:58:59.145Z,83.84
2018-03-08T00:59:59.098Z,83.74
2018-03-08T01:00:59.044Z,83.84
2018-03-08T01:01:58.992Z,83.84
2018-03-08T01:02:58.939Z,83.84
2018-03-08T01:03:58.888Z,83.84
2018-03-08T01:04:58.838Z,83.94
2018-03-08T01:05:58.788Z,83.65
2018-03-08T01:06:58.735Z,83.94
2018-03-08T01:07:58.685Z,84.03
2018-03-08T01:08:58.634Z,84.03
2018-03-08T01:09:58.583Z,83.84
2018-03-08T01:10:58.531Z,83.94
2018-03-08T01:11:58.480Z,83.74
2018-03-08T01:12:58.430Z,83.36
2018-03-08T01:13:58.379Z,83.27
2018-03-08T01:14:58.328Z,83.65
2018-03-08T01:15:58.276Z,83.94
2018-03-08T01:16:58.275Z,84.03
2018-03-08T01:17:58.175Z,83.94
2018-03-08T01:18:58.123Z,83.65
2018-03-08T01:19:58.076Z,83.74
2018-03-08T01:20:58.022Z,83.84
2018-03-08T01:21:57.972Z,83.84
2018-03-08T01:22:57.935Z,83.94
2018-03-08T01:23:57.868Z,83.84
2018-03-08T01:24:57.818Z,83.94
2018-03-08T01:25:57.769Z,83.74
2018-03-08T01:26:57.715Z,83.74
2018-03-08T01:27:57.664Z,83.94
2018-03-08T01:28:57.614Z,83.65
2018-03-08T01:29:57.564Z,83.74
2018-03-08T01:30:57.511Z,83.84
2018-03-08T01:31:57.461Z,83.46
2018-03-08T01:32:57.410Z,83.46
2018-03-08T01:33:57.360Z,83.55
2018-03-08T01:34:57.308Z,83.84
2018-03-08T01:35:57.257Z,83.65
2018-03-08T01:36:57.206Z,83.55
2018-03-08T01:37:57.156Z,83.55
2018-03-08T01:38:57.104Z,83.55
2018-03-08T01:39:57.059Z,83.65
2018-03-08T01:40:57.003Z,83.65
2018-03-08T01:41:56.952Z,83.65
2018-03-08T01:42:56.905Z,83.74
2018-03-08T01:43:56.850Z,83.55
2018-03-08T01:44:56.799Z,83.46
2018-03-08T01:45:56.750Z,83.36
2018-03-08T01:46:56.697Z,83.55
2018-03-08T01:47:56.646Z,83.55
2018-03-08T01:48:56.596Z,83.84
2018-03-08T01:49:56.545Z,83.65
2018-03-08T01:50:56.493Z,83.46
2018-03-08T01:51:56.444Z,83.36
2018-03-08T01:52:56.401Z,83.27
2018-03-08T01:53:56.341Z,83.55
2018-03-08T01:54:56.290Z,83.36
2018-03-08T01:55:56.244Z,83.55
2018-03-08T01:56:56.211Z,83.36
2018-03-08T01:57:56.139Z,83.36
2018-03-08T01:58:56.087Z,83.84
2018-03-08T01:59:56.036Z,83.55
2018-03-08T02:00:55.986Z,83.84
2018-03-08T02:01:55.935Z,83.65
2018-03-08T02:02:55.890Z,83.65
2018-03-08T02:03:55.833Z,83.65
2018-03-08T02:04:55.782Z,83.55
2018-03-08T02:05:55.732Z,83.46
2018-03-08T02:06:55.681Z,83.46
2018-03-08T02:07:55.633Z,83.55
2018-03-08T02:08:55.580Z,83.74
2018-03-08T02:09:55.529Z,83.65
2018-03-08T02:10:55.478Z,83.17
2018-03-08T02:11:55.427Z,83.46
2018-03-08T02:12:55.376Z,83.74
2018-03-08T02:13:55.326Z,83.36
2018-03-08T02:14:55.274Z,83.55
2018-03-08T02:15:55.225Z,83.36
2018-03-08T02:16:55.274Z,83.65
2018-03-08T02:17:55.122Z,83.27
2018-03-08T02:18:55.073Z,83.08
2018-03-08T02:19:55.021Z,83.46
2018-03-08T02:20:54.970Z,83.36
2018-03-08T02:21:54.919Z,83.08
2018-03-08T02:22:54.868Z,82.79
2018-03-08T02:23:54.820Z,82.60
2018-03-08T02:24:54.770Z,82.70
2018-03-08T02:25:54.717Z,82.70
2018-03-08T02:26:54.665Z,82.79
2018-03-08T02:27:54.619Z,82.98
2018-03-08T02:28:54.565Z,82.89
2018-03-08T02:29:54.514Z,82.98
2018-03-08T02:30:54.463Z,82.98
2018-03-08T02:31:54.412Z,82.89
2018-03-08T02:32:54.362Z,83.03
2018-03-08T02:33:54.311Z,82.93
2018-03-08T02:34:54.260Z,82.93
2018-03-08T02:35:54.210Z,82.89
2018-03-08T02:36:54.159Z,83.03
2018-03-08T02:37:54.109Z,83.03
2018-03-08T02:38:54.060Z,82.74
2018-03-08T02:39:54.007Z,82.65
2018-03-08T02:40:53.957Z,82.55
2018-03-08T02:41:53.906Z,82.65
2018-03-08T02:42:53.856Z,82.74
2018-03-08T02:43:53.805Z,82.65
2018-03-08T02:44:53.763Z,82.55
2018-03-08T02:45:53.712Z,82.65
2018-03-08T02:46:53.654Z,82.46
2018-03-08T02:47:53.603Z,82.65
2018-03-08T02:48:53.551Z,82.74
2018-03-08T02:49:53.501Z,82.74
2018-03-08T02:50:53.452Z,82.65
2018-03-08T02:51:53.399Z,82.55
2018-03-08T02:52:53.349Z,82.08
2018-03-08T02:53:53.356Z,82.08
2018-03-08T02:54:53.250Z,82.65
2018-03-08T02:55:53.204Z,82.08
2018-03-08T02:56:53.147Z,82.74
2018-03-08T02:57:53.097Z,82.36
2018-03-08T02:58:53.047Z,82.65
2018-03-08T02:59:52.996Z,82.27
2018-03-08T03:00:52.947Z,82.36
2018-03-08T03:01:52.895Z,82.55
2018-03-08T03:02:52.843Z,82.74
2018-03-08T03:03:52.795Z,82.55
2018-03-08T03:04:52.743Z,82.55
2018-03-08T03:05:52.693Z,82.74
2018-03-08T03:06:52.641Z,82.93
2018-03-08T03:07:52.590Z,82.65
2018-03-08T03:08:52.541Z,82.65
2018-03-08T03:09:52.508Z,82.65
2018-03-08T03:10:52.439Z,82.65
2018-03-08T03:11:52.389Z,82.74
2018-03-08T03:12:52.388Z,82.93
2018-03-08T03:13:52.287Z,82.74
2018-03-08T03:14:52.236Z,82.84
2018-03-08T03:15:52.186Z,82.93
2018-03-08T03:16:52.136Z,83.03
2018-03-08T03:17:52.085Z,82.65
2018-03-08T03:18:52.034Z,82.55
2018-03-08T03:19:51.984Z,82.65
2018-03-08T03:20:51.933Z,82.84
2018-03-08T03:21:51.883Z,83.03
2018-03-08T03:22:51.831Z,82.74
2018-03-08T03:23:51.784Z,83.12
2018-03-08T03:24:51.731Z,83.03
2018-03-08T03:25:51.680Z,82.74
2018-03-08T03:26:51.628Z,82.65
2018-03-08T03:27:51.579Z,82.55
2018-03-08T03:28:51.528Z,82.93
2018-03-08T03:29:51.477Z,82.65
2018-03-08T03:30:51.426Z,82.65
2018-03-08T03:31:51.375Z,82.55
2018-03-08T03:32:51.325Z,82.51
2018-03-08T03:33:51.275Z,82.89
2018-03-08T03:34:51.223Z,82.70
2018-03-08T03:35:51.172Z,82.60
2018-03-08T03:36:51.171Z,82.89
2018-03-08T03:37:51.070Z,82.60
2018-03-08T03:38:51.020Z,82.55
2018-03-08T03:39:50.969Z,82.51
2018-03-08T03:40:50.918Z,82.60
2018-03-08T03:41:50.867Z,82.08
2018-03-08T03:42:50.815Z,82.27
2018-03-08T03:43:50.765Z,82.46
2018-03-08T03:44:50.715Z,82.65
2018-03-08T03:45:50.664Z,82.74
2018-03-08T03:46:50.612Z,82.08
2018-03-08T03:47:50.561Z,82.46
2018-03-08T03:48:50.511Z,82.27
2018-03-08T03:49:50.460Z,82.17
2018-03-08T03:50:50.408Z,82.36
2018-03-08T03:51:50.360Z,82.36
2018-03-08T03:52:50.308Z,81.88
2018-03-08T03:53:50.259Z,82.08
2018-03-08T03:54:50.205Z,81.98
2018-03-08T03:55:50.154Z,81.98
2018-03-08T03:56:50.105Z,81.88
2018-03-08T03:57:50.054Z,82.08
2018-03-08T03:58:50.003Z,81.70
2018-03-08T03:59:49.952Z,82.17
2018-03-08T04:00:49.902Z,82.08
2018-03-08T04:01:49.852Z,82.08
2018-03-08T04:02:49.800Z,82.08
2018-03-08T04:03:49.752Z,82.08
2018-03-08T04:04:49.703Z,81.88
2018-03-08T04:05:49.648Z,82.08
2018-03-08T04:06:49.598Z,82.42
2018-03-08T04:07:49.547Z,82.42
2018-03-08T04:08:49.495Z,81.94
2018-03-08T04:09:49.445Z,82.13
2018-03-08T04:10:49.393Z,82.98
2018-03-08T04:11:49.350Z,82.89
2018-03-08T04:12:49.292Z,82.89
2018-03-08T04:13:49.241Z,83.17
2018-03-08T04:14:49.192Z,83.36
2018-03-08T04:15:49.145Z,83.17
2018-03-08T04:16:49.087Z,83.74
2018-03-08T04:17:49.036Z,83.65
2018-03-08T04:18:48.984Z,83.55
2018-03-08T04:19:48.933Z,83.84
2018-03-08T04:20:48.882Z,83.55
2018-03-08T04:21:48.831Z,83.46
2018-03-08T04:22:48.779Z,83.65
2018-03-08T04:23:48.728Z,83.65
2018-03-08T04:24:48.676Z,83.74
2018-03-08T04:25:48.628Z,83.94
2018-03-08T04:26:48.574Z,83.84
2018-03-08T04:27:48.523Z,84.12
2018-03-08T04:28:48.472Z,84.22
2018-03-08T04:29:48.420Z,83.94
2018-03-08T04:30:48.368Z,84.31
2018-03-08T04:31:48.317Z,83.65
2018-03-08T04:32:48.267Z,83.84
2018-03-08T04:33:48.214Z,84.12
2018-03-08T04:34:48.162Z,84.22
2018-03-08T04:35:48.111Z,84.03
2018-03-08T04:36:48.063Z,84.31
2018-03-08T04:37:48.011Z,83.94
2018-03-08T04:38:47.959Z,84.03
2018-03-08T04:39:47.906Z,84.12
2018-03-08T04:40:47.854Z,84.31
2018-03-08T04:41:47.803Z,84.12
2018-03-08T04:42:47.750Z,84.12
2018-03-08T04:43:47.699Z,84.03
2018-03-08T04:44:47.648Z,83.84
2018-03-08T04:45:47.597Z,84.12
2018-03-08T04:46:47.545Z,84.12
2018-03-08T04:47:47.494Z,84.69
2018-03-08T04:48:47.443Z,84.59
2018-03-08T04:49:47.393Z,84.50
2018-03-08T04:50:47.339Z,84.59
2018-03-08T04:51:47.288Z,84.78
2018-03-08T04:52:47.237Z,84.78
2018-03-08T04:53:47.186Z,84.59
2018-03-08T04:54:47.141Z,84.88
2018-03-08T04:55:47.083Z,83.94
2018-03-08T04:56:47.031Z,84.03
2018-03-08T04:57:46.980Z,84.12
2018-03-08T04:58:46.932Z,83.65
2018-03-08T04:59:46.880Z,84.22
2018-03-08T05:00:46.826Z,84.03
2018-03-08T05:01:46.775Z,84.03
2018-03-08T05:02:46.722Z,84.03
2018-03-08T05:03:46.672Z,84.03
2018-03-08T05:04:46.621Z,83.65
2018-03-08T05:05:46.573Z,84.03
2018-03-08T05:06:46.518Z,83.84
2018-03-08T05:07:46.468Z,83.84
2018-03-08T05:08:46.417Z,84.03
2018-03-08T05:09:46.366Z,83.94
2018-03-08T05:10:46.314Z,83.94
2018-03-08T05:11:46.263Z,83.74
2018-03-08T05:12:46.212Z,83.74
2018-03-08T05:13:46.161Z,83.74
2018-03-08T05:14:46.109Z,83.84
2018-03-08T05:15:46.058Z,83.84
2018-03-08T05:16:46.008Z,83.65
2018-03-08T05:17:45.959Z,83.65
2018-03-08T05:18:45.908Z,84.03
2018-03-08T05:19:45.854Z,84.03
2018-03-08T05:20:45.803Z,84.12
2018-03-08T05:21:45.752Z,83.94
2018-03-08T05:22:45.727Z,84.31
2018-03-08T05:23:45.676Z,84.03
2018-03-08T05:24:45.598Z,84.36
2018-03-08T05:25:45.547Z,83.88
2018-03-08T05:26:45.495Z,84.69
2018-03-08T05:27:45.444Z,85.17
2018-03-08T05:28:45.397Z,85.26
2018-03-08T05:29:45.343Z,85.83
2018-03-08T05:30:45.291Z,86.30
2018-03-08T05:31:45.242Z,86.87
2018-03-08T05:32:45.196Z,87.06
2018-03-08T05:33:45.142Z,87.16
2018-03-08T05:34:45.087Z,88.01
2018-03-08T05:35:45.035Z,88.29
2018-03-08T05:36:44.985Z,88.68
2018-03-08T05:37:44.934Z,88.87
2018-03-08T05:38:44.882Z,88.68
2018-03-08T05:39:44.833Z,89.53
2018-03-08T05:40:44.780Z,89.53
2018-03-08T05:41:44.729Z,90.00
2018-03-08T05:42:44.678Z,89.62
2018-03-08T05:43:44.627Z,89.81
2018-03-08T05:44:44.576Z,90.19
2018-03-08T05:45:44.526Z,90.29
2018-03-08T05:46:44.474Z,90.38
2018-03-08T05:47:44.426Z,90.48
2018-03-08T05:48:44.372Z,90.52
2018-03-08T05:49:44.321Z,90.52
2018-03-08T05:50:44.270Z,90.05
2018-03-08T05:51:44.218Z,90.62
2018-03-08T05:52:44.168Z,89.86
2018-03-08T05:53:44.118Z,90.05
2018-03-08T05:54:44.065Z,89.76
2018-03-08T05:55:44.017Z,89.58
2018-03-08T05:56:43.964Z,89.86
2018-03-08T05:57:43.926Z,89.29
2018-03-08T05:58:43.862Z,89.48
2018-03-08T05:59:43.811Z,89.67
2018-03-08T06:00:43.760Z,89.39
2018-03-08T06:01:43.710Z,88.72
2018-03-08T06:02:43.659Z,88.81
2018-03-08T06:03:43.608Z,88.62
2018-03-08T06:04:43.557Z,88.72
2018-03-08T06:05:43.508Z,88.81
2018-03-08T06:06:43.455Z,88.43
2018-03-08T06:07:43.408Z,88.24
2018-03-08T06:08:43.354Z,88.15
2018-03-08T06:09:43.305Z,88.06
2018-03-08T06:10:43.253Z,87.96
2018-03-08T06:11:43.202Z,87.58
2018-03-08T06:12:43.155Z,87.68
2018-03-08T06:13:43.101Z,87.39
2018-03-08T06:14:43.050Z,87.96
2018-03-08T06:15:42.999Z,87.58
2018-03-08T06:16:42.949Z,87.01
2018-03-08T06:17:42.899Z,87.30
2018-03-08T06:18:42.848Z,87.11
2018-03-08T06:19:42.804Z,87.01
2018-03-08T06:20:42.747Z,87.30
2018-03-08T06:21:42.696Z,87.30
2018-03-08T06:22:42.646Z,87.01
2018-03-08T06:23:42.596Z,86.91
2018-03-08T06:24:42.545Z,87.11
2018-03-08T06:25:42.495Z,87.11
2018-03-08T06:26:42.444Z,86.54
2018-03-08T06:27:42.394Z,86.72
2018-03-08T06:28:42.343Z,86.44
2018-03-08T06:29:42.294Z,86.72
2018-03-08T06:30:42.242Z,86.49
2018-03-08T06:31:42.193Z,86.01
2018-03-08T06:32:42.143Z,86.20
2018-03-08T06:33:42.094Z,86.39
2018-03-08T06:34:42.041Z,85.91
2018-03-08T06:35:41.991Z,86.30
2018-03-08T06:36:41.940Z,85.72
2018-03-08T06:37:41.891Z,85.63
2018-03-08T06:38:41.890Z,85.35
2018-03-08T06:39:41.790Z,85.53
2018-03-08T06:40:41.740Z,85.91
2018-03-08T06:41:41.691Z,85.44
2018-03-08T06:42:41.642Z,85.82
2018-03-08T06:43:41.591Z,85.72
2018-03-08T06:44:41.541Z,85.91
2018-03-08T06:45:41.490Z,86.11
2018-03-08T06:46:41.442Z,86.01
2018-03-08T06:47:41.389Z,85.44
2018-03-08T06:48:41.339Z,85.16
2018-03-08T06:49:41.289Z,85.16
2018-03-08T06:50:41.238Z,85.25
2018-03-08T06:51:41.189Z,85.16
2018-03-08T06:52:41.138Z,85.44
2018-03-08T06:53:41.089Z,85.44
2018-03-08T06:54:41.038Z,85.35
2018-03-08T06:55:40.988Z,85.53
2018-03-08T06:56:40.938Z,85.53
2018-03-08T06:57:40.887Z,85.53
2018-03-08T06:58:40.850Z,84.87
2018-03-08T06:59:40.787Z,84.97
2018-03-08T07:00:40.740Z,84.78
2018-03-08T07:01:40.688Z,84.49
2018-03-08T07:02:40.636Z,84.59
2018-03-08T07:03:40.587Z,84.59
2018-03-08T07:04:40.537Z,84.97
2018-03-08T07:05:40.495Z,84.97
2018-03-08T07:06:40.436Z,84.97
2018-03-08T07:07:40.386Z,84.78
2018-03-08T07:08:40.336Z,85.06
2018-03-08T07:09:40.287Z,84.97
2018-03-08T07:10:40.236Z,85.06
2018-03-08T07:11:40.186Z,85.06
2018-03-08T07:12:40.136Z,84.59
2018-03-08T07:13:40.087Z,84.49
2018-03-08T07:14:40.036Z,85.06
2018-03-08T07:15:39.987Z,84.68
2018-03-08T07:16:39.936Z,84.78
2018-03-08T07:17:39.887Z,84.78
2018-03-08T07:18:39.840Z,84.49
2018-03-08T07:19:39.789Z,84.68
2018-03-08T07:20:39.736Z,84.87
2018-03-08T07:21:39.687Z,84.68
2018-03-08T07:22:39.636Z,84.68
2018-03-08T07:23:39.587Z,84.78
2018-03-08T07:24:39.544Z,84.11
2018-03-08T07:25:39.488Z,84.40
2018-03-08T07:26:39.436Z,83.78
2018-03-08T07:27:39.388Z,84.21
2018-03-08T07:28:39.342Z,84.01
2018-03-08T07:29:39.288Z,84.25
2018-03-08T07:30:39.238Z,84.16
2018-03-08T07:31:39.189Z,84.16
2018-03-08T07:32:39.140Z,83.78
2018-03-08T07:33:39.090Z,84.06
2018-03-08T07:34:39.042Z,83.59
2018-03-08T07:35:38.996Z,83.87
2018-03-08T07:36:38.941Z,83.87
2018-03-08T07:37:38.892Z,84.06
2018-03-08T07:38:38.841Z,83.97
2018-03-08T07:39:38.792Z,83.97
2018-03-08T07:40:38.742Z,83.97
2018-03-08T07:41:38.693Z,83.97
2018-03-08T07:42:38.642Z,83.78
2018-03-08T07:43:38.597Z,83.87
2018-03-08T07:44:38.544Z,83.87
2018-03-08T07:45:38.494Z,84.06
2018-03-08T07:46:38.487Z,84.06
2018-03-08T07:47:38.394Z,84.06
2018-03-08T07:48:38.345Z,84.06
2018-03-08T07:49:38.296Z,83.59
2018-03-08T07:50:38.245Z,83.97
2018-03-08T07:51:38.197Z,84.06
2018-03-08T07:52:38.146Z,83.97
2018-03-08T07:53:38.102Z,83.87
2018-03-08T07:54:38.047Z,83.87
2018-03-08T07:55:37.997Z,83.97
2018-03-08T07:56:37.949Z,83.78
2018-03-08T07:57:37.904Z,84.25
2018-03-08T07:58:37.849Z,84.16
2018-03-08T07:59:37.800Z,83.59
2018-03-08T08:00:37.751Z,83.97
2018-03-08T08:01:37.701Z,83.87
2018-03-08T08:02:37.651Z,83.97
2018-03-08T08:03:37.601Z,84.06
2018-03-08T08:04:37.552Z,84.16
2018-03-08T08:05:37.503Z,84.25
2018-03-08T08:06:37.451Z,84.44
2018-03-08T08:07:37.403Z,84.25
2018-03-08T08:08:37.354Z,84.91
2018-03-08T08:09:37.305Z,84.53
2018-03-08T08:10:37.254Z,84.63
2018-03-08T08:11:37.208Z,85.11
2018-03-08T08:12:37.155Z,85.01
2018-03-08T08:13:37.106Z,85.49
2018-03-08T08:14:37.060Z,85.01
2018-03-08T08:15:37.006Z,85.77
2018-03-08T08:16:36.956Z,85.58
2018-03-08T08:17:36.907Z,85.58
2018-03-08T08:18:36.859Z,85.96
2018-03-08T08:19:36.807Z,85.91
2018-03-08T08:20:36.757Z,85.53
2018-03-08T08:21:36.707Z,86.11
2018-03-08T08:22:36.657Z,86.05
2018-03-08T08:23:36.607Z,86.11
2018-03-08T08:24:36.558Z,85.96
2018-03-08T08:25:36.507Z,85.96
2018-03-08T08:26:36.457Z,86.34
2018-03-08T08:27:36.407Z,86.05
2018-03-08T08:28:36.358Z,86.24
2018-03-08T08:29:36.308Z,86.05
2018-03-08T08:30:36.257Z,86.20
2018-03-08T08:31:36.211Z,86.24
2018-03-08T08:32:36.158Z,86.05
2018-03-08T08:33:36.107Z,86.24
2018-03-08T08:34:36.057Z,85.86
2018-03-08T08:35:36.014Z,85.86
2018-03-08T08:36:35.959Z,85.77
2018-03-08T08:37:35.909Z,85.11
2018-03-08T08:38:35.858Z,85.49
2018-03-08T08:39:35.808Z,85.68
2018-03-08T08:40:35.759Z,85.77
2018-03-08T08:41:35.710Z,85.86
2018-03-08T08:42:35.659Z,85.01
2018-03-08T08:43:35.609Z,85.30
2018-03-08T08:44:35.564Z,85.11
2018-03-08T08:45:35.516Z,85.20
2018-03-08T08:46:35.462Z,85.30
2018-03-08T08:47:35.413Z,85.30
2018-03-08T08:48:35.362Z,85.49
2018-03-08T08:49:35.312Z,85.49
2018-03-08T08:50:35.261Z,85.39
2018-03-08T08:51:35.212Z,85.30
2018-03-08T08:52:35.162Z,85.39
2018-03-08T08:53:35.112Z,85.11
2018-03-08T08:54:35.076Z,85.49
2018-03-08T08:55:35.013Z,85.49
2018-03-08T08:56:34.964Z,85.20
2018-03-08T08:57:34.914Z,85.30
2018-03-08T08:58:34.864Z,85.30
2018-03-08T08:59:34.821Z,85.30
2018-03-08T09:00:34.765Z,85.30
2018-03-08T09:01:34.714Z,85.39
2018-03-08T09:02:34.665Z,85.30
2018-03-08T09:03:34.615Z,85.30
2018-03-08T09:04:34.566Z,85.20
2018-03-08T09:05:34.516Z,85.20
2018-03-08T09:06:34.466Z,85.49
2018-03-08T09:07:34.431Z,85.96
2018-03-08T09:08:34.367Z,85.77
2018-03-08T09:09:34.318Z,85.96
2018-03-08T09:10:34.267Z,85.77
2018-03-08T09:11:34.217Z,85.68
2018-03-08T09:12:34.168Z,85.77
2018-03-08T09:13:34.117Z,85.20
2018-03-08T09:14:34.069Z,85.01
2018-03-08T09:15:34.020Z,85.68
2018-03-08T09:16:33.969Z,85.77
2018-03-08T09:17:33.920Z,85.77
2018-03-08T09:18:33.869Z,85.49
2018-03-08T09:19:33.819Z,85.39
2018-03-08T09:20:33.770Z,85.39
2018-03-08T09:21:33.720Z,85.39
2018-03-08T09:22:33.671Z,85.68
2018-03-08T09:23:33.620Z,85.96
2018-03-08T09:24:33.569Z,86.15
2018-03-08T09:25:33.522Z,85.96
2018-03-08T09:26:33.571Z,86.24
2018-03-08T09:27:33.419Z,86.15
2018-03-08T09:28:33.371Z,86.05
2018-03-08T09:29:33.321Z,86.24
2018-03-08T09:30:33.270Z,85.77
2018-03-08T09:31:33.221Z,85.86
2018-03-08T09:32:33.171Z,86.05
2018-03-08T09:33:33.124Z,85.96
2018-03-08T09:34:33.071Z,85.86
2018-03-08T09:35:33.021Z,86.63
2018-03-08T09:36:32.971Z,87.05
2018-03-08T09:37:32.921Z,87.10
2018-03-08T09:38:32.871Z,87.10
2018-03-08T09:39:32.820Z,86.43
2018-03-08T09:40:32.775Z,86.82
2018-03-08T09:41:32.722Z,86.43
2018-03-08T09:42:32.671Z,86.49
2018-03-08T09:43:32.621Z,86.24
2018-03-08T09:44:32.573Z,86.05
2018-03-08T09:45:32.522Z,86.05
2018-03-08T09:46:32.470Z,86.43
2018-03-08T09:47:32.421Z,86.15
2018-03-08T09:48:32.422Z,85.96
2018-03-08T09:49:32.322Z,85.49
2018-03-08T09:50:32.273Z,85.68
2018-03-08T09:51:32.222Z,85.39
2018-03-08T09:52:32.172Z,85.58
2018-03-08T09:53:32.122Z,85.96
2018-03-08T09:54:32.072Z,86.05
2018-03-08T09:55:32.025Z,85.20
2018-03-08T09:56:31.975Z,85.20
2018-03-08T09:57:31.922Z,85.58
2018-03-08T09:58:31.872Z,84.63
2018-03-08T09:59:31.872Z,84.91
2018-03-08T10:00:31.774Z,85.30
2018-03-08T10:01:31.724Z,84.82
2018-03-08T10:02:31.672Z,84.44
2018-03-08T10:03:31.623Z,84.72
2018-03-08T10:04:31.624Z,84.63
2018-03-08T10:05:31.547Z,84.72
2018-03-08T10:06:31.474Z,84.72
2018-03-08T10:07:31.424Z,85.01
2018-03-08T10:08:31.376Z,84.44
2018-03-08T10:09:31.325Z,83.87
2018-03-08T10:10:31.281Z,84.16
2018-03-08T10:11:31.239Z,83.87
2018-03-08T10:12:31.176Z,84.16
2018-03-08T10:13:31.126Z,84.16
2018-03-08T10:14:31.076Z,83.78
2018-03-08T10:15:31.024Z,83.97
2018-03-08T10:16:30.977Z,84.16
2018-03-08T10:17:30.927Z,84.06
2018-03-08T10:18:30.879Z,84.16
2018-03-08T10:19:30.828Z,84.16
2018-03-08T10:20:30.777Z,84.44
2018-03-08T10:21:44.517Z,84.06
2018-03-08T10:22:30.677Z,84.25
2018-03-08T10:23:30.627Z,83.97
2018-03-08T10:24:30.578Z,84.16
2018-03-08T10:25:30.529Z,84.25
2018-03-08T10:26:30.478Z,83.97
2018-03-08T10:27:30.428Z,83.97
2018-03-08T10:28:30.379Z,83.97
2018-03-08T10:29:30.333Z,84.06
2018-03-08T10:30:30.279Z,84.25
2018-03-08T10:31:30.229Z,84.06
2018-03-08T10:32:30.180Z,83.78
2018-03-08T10:33:30.128Z,83.59
2018-03-08T10:34:30.084Z,83.78
2018-03-08T10:35:30.180Z,83.78
2018-03-08T10:36:29.983Z,84.16
2018-03-08T10:37:29.930Z,83.97
2018-03-08T10:38:29.889Z,83.87
2018-03-08T10:39:29.832Z,84.06
2018-03-08T10:43:29.675Z,83.97
2018-03-08T10:44:29.581Z,83.87
2018-03-08T10:45:29.533Z,83.87
2018-03-08T10:46:29.482Z,83.87
2018-03-08T10:47:29.432Z,83.59
2018-03-08T10:48:29.383Z,83.68
2018-03-08T10:49:29.333Z,84.25
2018-03-08T10:50:29.283Z,83.97
2018-03-08T10:51:29.233Z,83.97
2018-03-08T10:52:29.184Z,83.78
2018-03-08T10:53:29.134Z,84.06
2018-03-08T10:54:29.084Z,84.16
2018-03-08T10:55:29.034Z,83.97
2018-03-08T10:56:28.985Z,83.97
2018-03-08T10:57:28.935Z,84.16
2018-03-08T10:58:28.884Z,84.16
2018-03-08T10:59:28.836Z,83.78
2018-03-08T11:00:28.791Z,84.16
2018-03-08T11:01:28.737Z,83.91
2018-03-08T11:02:28.690Z,83.97
2018-03-08T11:03:28.638Z,83.62
2018-03-08T11:04:28.588Z,83.82
2018-03-08T11:05:28.539Z,83.82
2018-03-08T11:06:28.489Z,83.82
2018-03-08T11:07:28.438Z,83.62
2018-03-08T11:08:28.402Z,83.62
2018-03-08T11:09:28.340Z,83.62
2018-03-08T11:10:28.290Z,83.34
2018-03-08T11:11:28.241Z,83.06
2018-03-08T11:12:28.193Z,83.06
2018-03-08T11:13:28.144Z,83.06
2018-03-08T11:14:28.097Z,83.06
2018-03-08T11:15:28.044Z,83.06
2018-03-08T11:16:27.996Z,82.58
2018-03-08T11:17:27.949Z,82.77
2018-03-08T11:18:27.901Z,82.29
2018-03-08T11:19:27.847Z,82.39
2018-03-08T11:20:27.800Z,82.39
2018-03-08T11:21:27.751Z,82.39
2018-03-08T11:22:27.701Z,82.43
2018-03-08T11:23:27.652Z,81.96
2018-03-08T11:24:27.605Z,81.96
2018-03-08T11:25:27.555Z,82.24
2018-03-08T11:26:27.504Z,82.15
2018-03-08T11:27:27.457Z,82.34
2018-03-08T11:28:27.408Z,81.86
2018-03-08T11:29:27.360Z,81.62
2018-03-08T11:30:27.327Z,81.81
2018-03-08T11:31:27.265Z,80.76
2018-03-08T11:32:27.214Z,80.66
2018-03-08T11:33:27.166Z,80.00
2018-03-08T11:34:27.117Z,80.57
2018-03-08T11:35:27.070Z,79.43
2018-03-08T11:36:27.020Z,79.66
2018-03-08T11:37:26.974Z,79.66
2018-03-08T11:38:26.925Z,79.19
2018-03-08T11:39:26.877Z,78.61
2018-03-08T11:40:26.828Z,78.71
2018-03-08T11:41:26.782Z,78.71
2018-03-08T11:42:26.732Z,78.14
2018-03-08T11:43:26.699Z,78.42
2018-03-08T11:44:26.639Z,78.27
2018-03-08T11:45:26.591Z,77.98
2018-03-08T11:46:26.543Z,77.03
2018-03-08T11:47:26.495Z,77.13
2018-03-08T11:48:26.447Z,76.56
2018-03-08T11:49:26.401Z,76.31
2018-03-08T11:50:26.353Z,76.50
2018-03-08T11:51:26.309Z,76.12
2018-03-08T11:52:26.259Z,75.74
2018-03-08T11:53:26.213Z,75.55
2018-03-08T11:54:26.165Z,75.74
2018-03-08T11:55:26.119Z,75.45
2018-03-08T11:56:26.073Z,75.55
2018-03-08T11:57:26.026Z,76.03
2018-03-08T11:58:25.979Z,76.31
2018-03-08T11:59:25.932Z,76.12
2018-03-08T12:00:25.886Z,75.84
2018-03-08T12:01:25.839Z,75.93
2018-03-08T12:02:25.791Z,75.93
2018-03-08T12:03:25.746Z,75.64
2018-03-08T12:04:25.699Z,75.55
2018-03-08T12:05:25.653Z,75.45
2018-03-08T12:06:25.607Z,75.55
2018-03-08T12:07:25.559Z,74.88
2018-03-08T12:08:25.517Z,75.16
2018-03-08T12:09:25.468Z,74.98
2018-03-08T12:10:25.421Z,74.88
2018-03-08T12:11:25.375Z,74.50
2018-03-08T12:12:25.329Z,74.60
2018-03-08T12:13:25.283Z,74.60
2018-03-08T12:14:25.236Z,74.69
2018-03-08T12:15:25.189Z,74.54
2018-03-08T12:16:25.143Z,74.16
2018-03-08T12:17:25.098Z,74.44
2018-03-08T12:18:25.052Z,73.87
2018-03-08T12:19:25.005Z,73.30
2018-03-08T12:20:24.959Z,73.01
2018-03-08T12:21:24.912Z,73.49
2018-03-08T12:22:24.867Z,73.11
2018-03-08T12:23:24.822Z,72.82
2018-03-08T12:24:24.776Z,73.11
2018-03-08T12:25:24.730Z,73.30
2018-03-08T12:26:24.683Z,73.74
2018-03-08T12:27:24.637Z,74.50
2018-03-08T12:28:24.592Z,74.21
2018-03-08T12:29:24.546Z,74.60
2018-03-08T12:30:24.499Z,75.07
2018-03-08T12:31:24.453Z,75.23
2018-03-08T12:32:24.460Z,75.23
2018-03-08T12:33:24.378Z,75.60
2018-03-08T12:34:24.314Z,75.89
2018-03-08T12:35:24.269Z,76.27
2018-03-08T12:36:24.222Z,75.60
2018-03-08T12:37:24.176Z,76.14
2018-03-08T12:38:24.129Z,76.46
2018-03-08T12:39:24.083Z,75.95
2018-03-08T12:40:24.037Z,76.23
2018-03-08T12:41:23.994Z,76.81
2018-03-08T12:42:23.944Z,76.61
2018-03-08T12:43:23.898Z,76.81
2018-03-08T12:44:23.854Z,77.09
2018-03-08T12:45:23.804Z,76.90
2018-03-08T12:46:23.757Z,77.19
2018-03-08T12:47:23.710Z,77.00
2018-03-08T12:48:23.663Z,77.28
2018-03-08T12:49:23.617Z,77.47
2018-03-08T12:50:23.570Z,77.09
2018-03-08T12:51:23.523Z,77.19
2018-03-08T12:52:23.477Z,76.42
2018-03-08T12:53:23.429Z,76.61
2018-03-08T12:54:23.382Z,76.71